createdAt,value
2022-08-05T00:02:43.868Z,97403.63
2022-08-05T00:06:05.121Z,97395.38
2022-08-05T00:08:46.808Z,97398.66
2022-08-05T00:11:27.992Z,97400.66
2022-08-05T00:14:02.162Z,97398.78
2022-08-05T00:16:52.113Z,97401.66
2022-08-05T00:19:23.477Z,97401.28
2022-08-05T00:22:13.498Z,97393.47
2022-08-05T00:24:58.503Z,97395.50
2022-08-05T00:27:45.524Z,97388.13
2022-08-05T00:30:29.023Z,97387.34
2022-08-05T00:32:57.538Z,97386.63
2022-08-05T00:35:33.236Z,97388.38
2022-08-05T00:38:04.988Z,97390.81
2022-08-05T00:40:57.031Z,97389.72
2022-08-05T00:43:25.987Z,97396.94
2022-08-05T00:46:11.273Z,97393.75
2022-08-05T00:48:50.779Z,97397.38
2022-08-05T00:51:51.013Z,97386.00
2022-08-05T00:54:22.089Z,97388.34
2022-08-05T00:56:56.496Z,97389.91
2022-08-05T00:59:24.941Z,97390.81
2022-08-05T01:01:53.529Z,97391.25
2022-08-05T01:04:26.800Z,97390.44
2022-08-05T01:06:58.915Z,97391.28
2022-08-05T01:09:30.458Z,97383.81
2022-08-05T01:12:17.871Z,97384.25
2022-08-05T01:14:59.355Z,97382.31
2022-08-05T01:17:44.096Z,97376.03
2022-08-05T01:20:28.805Z,97376.09
2022-08-05T01:23:22.787Z,97378.13
2022-08-05T01:26:26.370Z,97380.91
2022-08-05T01:29:04.230Z,97373.03
2022-08-05T01:31:44.879Z,97369.47
2022-08-05T01:34:20.891Z,97372.66
2022-08-05T01:37:00.533Z,97382.94
2022-08-05T01:39:46.704Z,97380.56
2022-08-05T01:42:20.435Z,97384.56
2022-08-05T01:44:54.490Z,97384.19
2022-08-05T01:47:38.779Z,97381.03
2022-08-05T01:50:14.990Z,97374.72
2022-08-05T01:52:49.991Z,97381.81
2022-08-05T01:55:23.413Z,97376.69
2022-08-05T01:58:11.440Z,97379.44
2022-08-05T02:00:51.614Z,97382.25
2022-08-05T02:03:31.943Z,97374.38
2022-08-05T02:06:37.452Z,97377.94
2022-08-05T02:09:03.381Z,97370.09
2022-08-05T02:11:47.914Z,97378.81
2022-08-05T02:14:24.278Z,97370.53
2022-08-05T02:17:00.018Z,97375.69
2022-08-05T02:19:47.198Z,97374.88
2022-08-05T02:22:26.362Z,97372.50
2022-08-05T02:25:03.462Z,97378.84
2022-08-05T02:27:58.272Z,97378.41
2022-08-05T02:30:31.887Z,97373.66
2022-08-05T02:33:08.248Z,97379.56
2022-08-05T02:35:50.942Z,97379.56
2022-08-05T02:38:35.084Z,97370.94
2022-08-05T02:41:22.929Z,97375.28
2022-08-05T02:44:06.014Z,97376.88
2022-08-05T02:46:53.473Z,97374.47
2022-08-05T02:49:36.088Z,97366.53
2022-08-05T02:52:25.921Z,97370.06
2022-08-05T02:55:01.946Z,97370.44
2022-08-05T02:58:10.545Z,97369.25
2022-08-05T03:00:25.348Z,97368.84
2022-08-05T03:02:55.829Z,97371.59
2022-08-05T03:06:56.096Z,97369.63
2022-08-05T03:08:16.679Z,97373.59
2022-08-05T03:11:45.932Z,97375.19
2022-08-05T03:13:51.823Z,97376.41
2022-08-05T03:16:31.667Z,97374.84
2022-08-05T03:19:01.244Z,97377.63
2022-08-05T03:21:41.713Z,97372.09
2022-08-05T03:24:26.894Z,97375.25
2022-08-05T03:26:58.796Z,97368.16
2022-08-05T03:29:45.809Z,97359.06
2022-08-05T03:32:17.297Z,97349.22
2022-08-05T03:34:50.959Z,97353.59
2022-08-05T03:37:22.801Z,97354.81
2022-08-05T03:40:01.242Z,97358.34
2022-08-05T03:42:32.838Z,97356.78
2022-08-05T03:45:03.547Z,97350.03
2022-08-05T03:47:50.594Z,97351.59
2022-08-05T03:50:19.411Z,97350.81
2022-08-05T03:55:07.001Z,97348.03
2022-08-05T03:56:10.804Z,97350.03
2022-08-05T03:58:47.955Z,97352.38
2022-08-05T04:01:23.736Z,97354.38
2022-08-05T04:04:09.691Z,97356.38
2022-08-05T04:06:47.593Z,97350.44
2022-08-05T04:09:20.274Z,97350.38
2022-08-05T04:11:56.558Z,97356.28
2022-08-05T04:14:30.089Z,97352.31
2022-08-05T04:17:02.847Z,97346.75
2022-08-05T04:19:32.075Z,97355.41
2022-08-05T04:22:08.641Z,97355.78
2022-08-05T04:24:52.276Z,97356.91
2022-08-05T04:27:33.112Z,97348.16
2022-08-05T04:30:12.204Z,97348.09
2022-08-05T04:32:40.778Z,97345.69
2022-08-05T04:35:17.408Z,97346.53
2022-08-05T04:38:02.797Z,97344.16
2022-08-05T04:40:38.012Z,97347.31
2022-08-05T04:43:16.718Z,97349.19
2022-08-05T04:45:55.580Z,97357.34
2022-08-05T04:48:27.672Z,97354.16
2022-08-05T04:51:03.236Z,97358.81
2022-08-05T04:53:38.572Z,97355.13
2022-08-05T04:56:34.017Z,97360.84
2022-08-05T04:59:00.647Z,97349.50
2022-08-05T05:02:07.481Z,97359.19
2022-08-05T05:04:38.425Z,97353.47
2022-08-05T05:07:12.742Z,97359.66
2022-08-05T05:09:45.098Z,97357.84
2022-08-05T05:12:15.133Z,97352.50
2022-08-05T05:14:55.219Z,97347.91
2022-08-05T05:17:56.585Z,97348.13
2022-08-05T05:20:16.600Z,97349.50
2022-08-05T05:23:19.530Z,97357.59
2022-08-05T05:26:28.149Z,97372.78
2022-08-05T05:29:20.633Z,97377.09
2022-08-05T05:33:17.087Z,97376.91
2022-08-05T05:37:00.513Z,97374.53
2022-08-05T05:39:47.121Z,97375.03
2022-08-05T05:42:16.911Z,97378.94
2022-08-05T05:45:27.539Z,97383.50
2022-08-05T05:52:51.027Z,97405.31
2022-08-05T05:55:52.126Z,97444.88
2022-08-05T05:58:40.881Z,97449.91
2022-08-05T06:01:24.781Z,97419.88
2022-08-05T06:07:22.704Z,97422.31
2022-08-05T06:18:02.263Z,97421.59
2022-08-05T06:20:31.513Z,97412.72
2022-08-05T06:23:01.328Z,97416.47
2022-08-05T06:26:12.269Z,97414.22
2022-08-05T06:28:22.549Z,97391.63
2022-08-05T06:30:59.699Z,97392.50
2022-08-05T06:34:06.825Z,97387.34
2022-08-05T06:36:27.682Z,97384.19
2022-08-05T06:39:15.968Z,97391.28
2022-08-05T06:41:44.935Z,97381.38
2022-08-05T06:44:15.928Z,97377.69
2022-08-05T06:46:46.534Z,97373.03
2022-08-05T06:50:01.354Z,97363.94
2022-08-05T06:52:38.126Z,97364.94
2022-08-05T06:55:10.492Z,97364.97
2022-08-05T06:58:03.375Z,97364.19
2022-08-05T07:00:27.904Z,97359.69
2022-08-05T07:03:01.555Z,97369.88
2022-08-05T07:05:37.416Z,97371.50
2022-08-05T07:08:10.907Z,97385.94
2022-08-05T07:10:53.073Z,97381.78
2022-08-05T07:13:58.161Z,97377.25
2022-08-05T07:18:02.125Z,97382.25
2022-08-05T07:20:46.284Z,97414.25
2022-08-05T08:56:03.948Z,97465.44
2022-08-05T08:58:43.574Z,97467.16
2022-08-05T09:01:18.363Z,97464.59
2022-08-05T09:03:53.075Z,97458.59
2022-08-05T09:06:28.086Z,97458.91
2022-08-05T09:09:02.094Z,97463.56
2022-08-05T09:11:52.710Z,97459.78
2022-08-05T09:14:58.769Z,97466.81
2022-08-05T09:17:40.008Z,97461.56
2022-08-05T09:20:05.076Z,97481.38
2022-08-05T09:23:22.130Z,97486.03
2022-08-05T09:26:08.557Z,97486.88
2022-08-05T09:28:40.604Z,97479.38
2022-08-05T09:32:38.558Z,97482.75
2022-08-05T09:34:06.726Z,97507.56
2022-08-05T09:36:45.679Z,97480.81
2022-08-05T09:39:27.703Z,97486.13
2022-08-05T09:42:13.567Z,97492.69
2022-08-05T09:44:56.580Z,97495.53
2022-08-05T09:47:48.462Z,97493.19
2022-08-05T09:50:38.156Z,97486.31
2022-08-05T09:53:12.052Z,97485.06
2022-08-05T09:56:13.159Z,97485.69
2022-08-05T09:58:42.360Z,97483.13
2022-08-05T10:01:31.574Z,97493.00
2022-08-05T10:04:10.359Z,97486.00
2022-08-05T10:06:41.573Z,97493.97
2022-08-05T10:09:27.522Z,97495.06
2022-08-05T10:12:18.506Z,97489.81
2022-08-05T10:15:17.287Z,97495.56
2022-08-05T10:18:10.949Z,97488.09
2022-08-05T10:20:47.971Z,97495.97
2022-08-05T10:23:34.048Z,97502.31
2022-08-05T10:26:14.271Z,97496.03
2022-08-05T10:28:46.343Z,97492.53
2022-08-05T10:32:52.206Z,97503.63
2022-08-05T10:34:07.958Z,97500.19
2022-08-05T10:36:41.281Z,97507.16
2022-08-05T10:39:24.984Z,97505.75
2022-08-05T10:42:20.581Z,97515.63
2022-08-05T10:45:02.309Z,97517.81
2022-08-05T10:48:27.624Z,97511.59
2022-08-05T10:51:01.018Z,97519.81
2022-08-05T10:53:58.497Z,97518.50
2022-08-05T10:56:37.577Z,97512.19
2022-08-05T10:59:12.643Z,97516.44
2022-08-05T11:02:23.665Z,97528.72
2022-08-05T11:05:05.758Z,97515.84
2022-08-05T11:08:02.438Z,97521.22
2022-08-05T11:10:27.589Z,97511.81
2022-08-05T11:12:57.530Z,97510.19
2022-08-05T11:16:00.824Z,97509.72
2022-08-05T11:18:32.268Z,97514.69
2022-08-05T11:21:02.744Z,97517.38
2022-08-05T11:24:04.923Z,97506.13
2022-08-05T11:26:49.589Z,97512.88
2022-08-05T11:29:40.398Z,97504.94
2022-08-05T11:32:29.186Z,97513.16
2022-08-05T11:34:58.675Z,97508.91
2022-08-05T11:38:26.825Z,97515.94
2022-08-05T11:41:34.794Z,97503.63
2022-08-05T11:44:07.508Z,97506.34
2022-08-05T11:46:57.938Z,97511.75
2022-08-05T11:49:28.033Z,97514.94
2022-08-05T11:51:57.349Z,97516.09
2022-08-05T11:54:33.457Z,97502.53
2022-08-05T11:57:07.941Z,97507.56
2022-08-05T11:59:54.820Z,97493.41
2022-08-05T12:02:33.038Z,97495.47
2022-08-05T12:05:08.180Z,97492.72
2022-08-05T12:08:08.484Z,97483.88
2022-08-05T12:10:45.425Z,97477.16
2022-08-05T12:13:27.988Z,97487.59
2022-08-05T12:16:32.754Z,97482.03
2022-08-05T12:19:09.893Z,97482.50
2022-08-05T12:21:58.500Z,97477.13
2022-08-05T12:24:31.682Z,97479.78
2022-08-05T12:27:09.937Z,97475.56
2022-08-05T12:30:03.243Z,97467.22
2022-08-05T12:32:35.969Z,97462.78
2022-08-05T12:35:09.517Z,97462.66
2022-08-05T12:38:31.422Z,97463.44
2022-08-05T12:41:00.951Z,97467.00
2022-08-05T12:43:32.209Z,97462.03
2022-08-05T12:46:00.913Z,97463.97
2022-08-05T12:48:40.792Z,97463.81
2022-08-05T12:52:12.789Z,97451.28
2022-08-05T12:54:26.522Z,97451.25
2022-08-05T12:56:58.211Z,97459.31
2022-08-05T12:59:46.894Z,97451.63
2022-08-05T13:02:27.276Z,97447.72
2022-08-05T13:05:00.721Z,97448.63
2022-08-05T13:07:59.485Z,97444.06
2022-08-05T13:10:19.364Z,97445.38
2022-08-05T13:12:51.071Z,97442.78
2022-08-05T13:15:36.006Z,97438.34
2022-08-05T13:18:18.852Z,97428.44
2022-08-05T13:20:50.503Z,97426.22
2022-08-05T13:23:22.514Z,97429.28
2022-08-05T13:25:59.575Z,97420.38
2022-08-05T13:28:32.090Z,97421.06
2022-08-05T13:31:03.303Z,97411.81
2022-08-05T13:34:21.305Z,97411.47
2022-08-05T13:36:40.287Z,97403.91
2022-08-05T13:39:09.857Z,97398.94
2022-08-05T13:41:58.183Z,97410.38
2022-08-05T13:44:27.754Z,97405.81
2022-08-05T13:47:04.513Z,97405.63
2022-08-05T13:49:37.103Z,97397.94
2022-08-05T13:52:17.679Z,97398.44
2022-08-05T13:54:53.222Z,97410.47
2022-08-05T13:57:22.803Z,97403.56
2022-08-05T13:59:55.588Z,97401.41
2022-08-05T14:02:29.869Z,97402.28
2022-08-05T14:05:15.141Z,97403.53
2022-08-05T14:08:00.725Z,97394.34
2022-08-05T14:10:35.379Z,97403.28
2022-08-05T14:13:07.371Z,97401.16
2022-08-05T14:16:05.783Z,97401.03
2022-08-05T14:18:25.249Z,97399.28
2022-08-05T14:20:55.016Z,97406.97
2022-08-05T14:23:28.092Z,97399.72
2022-08-05T14:26:02.173Z,97400.84
2022-08-05T14:28:33.500Z,97404.16
2022-08-05T14:31:03.002Z,97404.22
2022-08-05T14:34:00.383Z,97399.84
2022-08-05T14:36:29.225Z,97398.41
2022-08-05T14:39:02.764Z,97397.00
2022-08-05T14:41:34.792Z,97390.81
2022-08-05T14:44:10.028Z,97386.28
2022-08-05T14:46:49.274Z,97379.84
2022-08-05T14:49:17.780Z,97384.13
2022-08-05T14:51:46.302Z,97384.53
2022-08-05T14:54:27.527Z,97383.06
2022-08-05T14:56:58.654Z,97377.50
2022-08-05T14:59:29.433Z,97378.22
2022-08-05T15:01:59.938Z,97374.41
2022-08-05T15:04:29.114Z,97371.84
2022-08-05T15:06:58.134Z,97367.53
2022-08-05T15:09:51.496Z,97366.84
2022-08-05T15:12:17.223Z,97370.09
2022-08-05T15:14:49.492Z,97360.13
2022-08-05T15:17:47.095Z,97363.59
2022-08-05T15:20:18.505Z,97361.13
2022-08-05T15:22:54.401Z,97353.19
2022-08-05T15:25:40.905Z,97352.91
2022-08-05T15:28:16.233Z,97364.38
2022-08-05T15:30:46.609Z,97360.38
2022-08-05T15:34:04.705Z,97353.66
2022-08-05T15:36:24.519Z,97359.31
2022-08-05T15:40:40.969Z,97365.75
2022-08-05T15:41:58.441Z,97373.38
2022-08-05T15:44:30.441Z,97375.16
2022-08-05T15:47:01.749Z,97375.84
2022-08-05T15:49:53.370Z,97374.59
2022-08-05T15:52:51.839Z,97375.97
2022-08-05T15:55:15.589Z,97381.41
2022-08-05T15:57:48.917Z,97387.72
2022-08-05T16:00:25.810Z,97386.34
2022-08-05T16:03:01.425Z,97387.13
2022-08-05T16:05:30.632Z,97385.16
2022-08-05T16:07:59.216Z,97385.22
2022-08-05T16:10:28.770Z,97386.84
2022-08-05T16:12:59.046Z,97384.78
2022-08-05T16:15:32.615Z,97381.28
2022-08-05T16:18:04.233Z,97382.13
2022-08-05T16:20:37.656Z,97379.34
2022-08-05T16:23:08.479Z,97375.97
2022-08-05T16:25:37.951Z,97383.09
2022-08-05T16:28:11.588Z,97381.47
2022-08-05T16:30:42.758Z,97374.22
2022-08-05T16:33:13.645Z,97384.75
2022-08-05T16:35:44.669Z,97381.66
2022-08-05T16:38:25.423Z,97393.69
2022-08-05T16:41:00.748Z,97392.28
2022-08-05T16:43:33.344Z,97390.28
2022-08-05T16:46:27.699Z,97392.09
2022-08-05T16:48:55.810Z,97398.63
2022-08-05T16:51:24.621Z,97394.59
2022-08-05T16:54:05.727Z,97389.34
2022-08-05T16:56:41.591Z,97389.28
2022-08-05T16:59:14.659Z,97386.97
2022-08-05T17:01:53.979Z,97391.56
2022-08-05T17:04:27.354Z,97392.78
2022-08-05T17:07:01.144Z,97385.81
2022-08-05T17:09:57.459Z,97401.94
2022-08-05T17:12:22.666Z,97402.69
2022-08-05T17:15:10.888Z,97389.50
2022-08-05T17:17:54.965Z,97390.97
2022-08-05T17:20:25.043Z,97386.47
2022-08-05T17:22:57.396Z,97394.44
2022-08-05T17:25:39.525Z,97394.91
2022-08-05T17:28:09.253Z,97397.72
2022-08-05T17:30:42.479Z,97397.84
2022-08-05T17:33:11.288Z,97410.03
2022-08-05T17:36:08.888Z,97396.88
2022-08-05T17:38:30.052Z,97411.13
2022-08-05T17:41:00.838Z,97414.66
2022-08-05T17:43:50.305Z,97409.44
2022-08-05T17:46:23.725Z,97410.78
2022-08-05T17:48:52.332Z,97409.38
2022-08-05T17:51:21.774Z,97401.13
2022-08-05T17:53:54.888Z,97410.47
2022-08-05T17:56:29.447Z,97416.03
2022-08-05T17:58:58.039Z,97421.06
2022-08-05T18:01:28.082Z,97419.19
2022-08-05T18:04:21.073Z,97414.22
2022-08-05T18:06:50.129Z,97422.00
2022-08-05T18:09:18.830Z,97415.34
2022-08-05T18:11:52.390Z,97423.13
2022-08-05T18:14:23.055Z,97424.88
2022-08-05T18:16:53.756Z,97430.50
2022-08-05T18:19:22.986Z,97428.63
2022-08-05T18:22:08.308Z,97426.28
2022-08-05T18:24:40.092Z,97431.56
2022-08-05T18:27:12.571Z,97431.72
2022-08-05T18:29:53.682Z,97437.00
2022-08-05T18:36:57.142Z,97441.41
2022-08-05T18:40:30.885Z,97443.94
2022-08-05T18:42:15.128Z,97438.13
2022-08-05T18:44:51.403Z,97450.41
2022-08-05T18:47:26.436Z,97459.84
2022-08-05T18:50:10.747Z,97461.66
2022-08-05T18:52:51.274Z,97473.38
2022-08-05T18:55:22.285Z,97462.03
2022-08-05T18:58:03.508Z,97468.53
2022-08-05T19:00:34.779Z,97468.00
2022-08-05T19:03:05.084Z,97482.41
2022-08-05T19:06:12.600Z,97488.91
2022-08-05T19:08:30.152Z,97489.16
2022-08-05T19:11:04.686Z,97502.06
2022-08-05T19:13:36.676Z,97501.84
2022-08-05T19:16:25.067Z,97509.38
2022-08-05T19:18:57.165Z,97511.25
2022-08-05T19:21:34.470Z,97515.53
2022-08-05T19:24:12.470Z,97532.13
2022-08-05T19:26:55.030Z,97512.31
2022-08-05T19:29:26.560Z,97519.59
2022-08-05T19:32:11.444Z,97526.50
2022-08-05T19:34:55.275Z,97517.69
2022-08-05T19:37:35.105Z,97524.06
2022-08-05T19:40:15.005Z,97530.53
2022-08-05T19:43:04.565Z,97545.50
2022-08-05T19:45:33.333Z,97550.97
2022-08-05T19:48:06.298Z,97558.91
2022-08-05T19:50:35.738Z,97560.03
2022-08-05T19:53:09.555Z,97555.09
2022-08-05T19:56:13.768Z,97554.50
2022-08-05T19:58:30.165Z,97552.75
2022-08-05T20:00:59.254Z,97554.16
2022-08-05T20:03:38.878Z,97561.63
2022-08-05T20:06:11.771Z,97554.38
2022-08-05T20:08:47.590Z,97556.56
2022-08-05T20:11:19.457Z,97553.44
2022-08-05T20:13:58.335Z,97564.63
2022-08-05T20:16:41.108Z,97558.00
2022-08-05T20:19:11.902Z,97567.09
2022-08-05T20:21:43.457Z,97570.13
2022-08-05T20:24:14.308Z,97573.66
2022-08-05T20:26:45.949Z,97578.94
2022-08-05T20:29:27.712Z,97575.00
2022-08-05T20:31:58.393Z,97572.59
2022-08-05T20:34:28.262Z,97559.41
2022-08-05T20:36:56.910Z,97564.03
2022-08-05T20:39:26.067Z,97565.25
2022-08-05T20:42:07.150Z,97575.81
2022-08-05T20:44:40.253Z,97585.38
2022-08-05T20:47:09.589Z,97589.84
2022-08-05T20:49:40.118Z,97585.50
2022-08-05T20:52:10.606Z,97597.78
2022-08-05T20:54:55.392Z,97602.47
2022-08-05T20:57:43.789Z,97598.56
2022-08-05T21:00:41.045Z,97592.78
2022-08-05T21:03:07.953Z,97603.94
2022-08-05T21:05:47.884Z,97603.22
2022-08-05T21:08:28.212Z,97593.50
2022-08-05T21:11:12.041Z,97589.84
2022-08-05T21:13:55.603Z,97605.53
2022-08-05T21:16:29.921Z,97610.13
2022-08-05T21:19:00.942Z,97622.13
2022-08-05T21:21:39.619Z,97614.03
2022-08-05T21:24:15.453Z,97649.41
2022-08-05T21:26:53.642Z,97664.47
2022-08-05T21:29:31.775Z,97685.47
2022-08-05T21:32:02.253Z,97695.50
2022-08-05T21:34:31.578Z,97700.38
2022-08-05T21:37:00.373Z,97710.66
2022-08-05T21:39:28.900Z,97721.63
2022-08-05T21:42:01.117Z,97716.66
2022-08-05T21:44:31.937Z,97718.53
2022-08-05T21:47:01.154Z,97706.16
2022-08-05T21:49:58.585Z,97713.38
2022-08-05T21:52:28.154Z,97721.97
2022-08-05T21:55:06.037Z,97747.75
2022-08-05T21:57:35.733Z,97754.09
2022-08-05T22:00:11.756Z,97759.59
2022-08-05T22:02:44.333Z,97778.38
2022-08-05T22:05:14.905Z,97794.66
2022-08-05T22:07:59.442Z,97809.63
2022-08-05T22:10:31.122Z,97829.31
2022-08-05T22:13:08.771Z,97829.88
2022-08-05T22:16:00.412Z,97827.50
2022-08-05T22:18:31.498Z,97837.59
2022-08-05T22:21:00.615Z,97839.22
2022-08-05T22:24:02.320Z,97852.41
2022-08-05T22:26:54.510Z,97856.22
2022-08-05T22:29:26.785Z,97860.28
2022-08-05T22:32:02.768Z,97873.75
2022-08-05T22:34:32.696Z,97882.50
2022-08-05T22:37:03.855Z,97888.16
2022-08-05T22:39:34.512Z,97895.22
2022-08-05T22:42:12.370Z,97895.38
2022-08-05T22:44:48.538Z,97896.94
2022-08-05T22:47:28.993Z,97895.81
2022-08-05T22:50:20.045Z,97895.63
2022-08-05T22:52:50.151Z,97902.44
2022-08-05T22:55:21.856Z,97909.75
2022-08-05T22:57:51.368Z,97911.81
2022-08-05T23:00:22.958Z,97917.78
2022-08-05T23:02:53.932Z,97929.69
2022-08-05T23:05:24.186Z,97932.84
2022-08-05T23:07:53.111Z,97931.19
2022-08-05T23:10:23.667Z,97933.53
2022-08-05T23:12:55.552Z,97939.78
2022-08-05T23:15:29.085Z,97936.91
2022-08-05T23:18:03.563Z,97933.25
2022-08-05T23:20:37.515Z,97937.91
2022-08-05T23:23:08.613Z,97941.03
2022-08-05T23:25:51.726Z,97935.84
2022-08-05T23:28:22.906Z,97943.69
2022-08-05T23:30:53.184Z,97938.97
2022-08-05T23:33:26.443Z,97950.84
2022-08-05T23:36:13.585Z,97960.66
2022-08-05T23:38:43.513Z,97976.34
2022-08-05T23:41:13.009Z,97982.63
2022-08-05T23:44:04.840Z,97992.50
2022-08-05T23:46:30.879Z,98002.41
2022-08-05T23:49:03.724Z,97993.38
2022-08-05T23:52:02.688Z,97999.09
2022-08-05T23:54:38.366Z,98015.63
2022-08-05T23:57:08.306Z,98020.66
